Time;durP1;ratioP1;P1;durP2;ratioP2;P2;SDS_P1;SDS_P2;PMS_P1;PMS_P2;Temp;Humidity;BMP_temperature;BMP_pressure;BME280_temperature;BME280_humidity;BME280_pressure;Samples;Min_cycle;Max_cycle;Signal;HPM_P1;HPM_P2
2022/06/02 00:00:40;;;;;;;5.80;1.85;;;19.70;60.00;;;;;;5111387;28;20024;-72
2022/06/02 00:03:25;;;;;;;3.95;1.95;;;19.60;60.10;;;;;;5100169;28;20020;-72
2022/06/02 00:06:09;;;;;;;2.30;1.63;;;19.50;60.20;;;;;;5102405;28;20399;-72
2022/06/02 00:08:49;;;;;;;2.13;1.65;;;19.40;60.50;;;;;;5095406;28;20459;-72
2022/06/02 00:11:41;;;;;;;2.38;1.45;;;19.40;60.90;;;;;;5108658;28;20028;-72
2022/06/02 00:14:25;;;;;;;2.35;1.35;;;19.30;61.10;;;;;;5108545;28;20028;-72
2022/06/02 00:17:02;;;;;;;2.08;1.52;;;19.20;61.30;;;;;;5082648;28;20024;-72
2022/06/02 00:19:32;;;;;;;2.65;1.40;;;19.20;61.50;;;;;;5106728;28;20028;-72
2022/06/02 00:22:11;;;;;;;2.72;1.40;;;19.20;61.90;;;;;;5108409;28;20039;-72
2022/06/02 00:25:23;;;;;;;3.65;1.52;;;19.10;61.80;;;;;;5098660;28;20031;-72
2022/06/02 00:28:05;;;;;;;3.45;1.98;;;19.00;61.80;;;;;;5050011;28;20028;-72
2022/06/02 00:30:44;;;;;;;2.78;1.65;;;19.00;61.80;;;;;;5036179;28;20521;-72
2022/06/02 00:33:37;;;;;;;2.35;1.40;;;18.90;61.90;;;;;;5045898;28;20112;-72
2022/06/02 00:36:43;;;;;;;2.15;1.77;;;18.80;62.00;;;;;;5046074;28;20040;-72
2022/06/02 00:39:10;;;;;;;2.50;1.50;;;18.70;62.10;;;;;;4998741;28;20041;-72
2022/06/02 00:42:12;;;;;;;1.42;1.33;;;18.70;61.90;;;;;;5042006;28;20018;-72
2022/06/02 00:44:48;;;;;;;2.63;1.70;;;18.60;61.80;;;;;;5012088;28;20038;-72
2022/06/02 00:47:29;;;;;;;1.73;1.35;;;18.60;62.10;;;;;;5028521;28;20027;-72
2022/06/02 00:50:04;;;;;;;3.58;1.38;;;18.50;62.50;;;;;;5044812;28;20052;-72
2022/06/02 00:52:41;;;;;;;2.72;1.58;;;18.40;62.50;;;;;;5035536;28;20087;-72
2022/06/02 00:58:28;;;;;;;2.10;1.40;;;18.30;62.10;;;;;;5059724;28;20445;-72
2022/06/02 01:01:03;;;;;;;2.20;1.10;;;18.20;61.90;;;;;;5082406;28;20047;-72
2022/06/02 01:03:40;;;;;;;2.65;1.65;;;18.20;61.90;;;;;;5105403;28;20421;-72
2022/06/02 01:06:23;;;;;;;3.33;1.52;;;18.10;62.70;;;;;;5108889;28;20076;-72
2022/06/02 01:09:09;;;;;;;5.95;1.67;;;18.00;63.40;;;;;;5096172;28;20051;-72
2022/06/02 01:12:32;;;;;;;5.35;2.03;;;18.00;63.70;;;;;;5104570;28;20024;-73
2022/06/02 01:15:11;;;;;;;2.67;1.60;;;18.00;63.90;;;;;;5026108;28;20053;-72
2022/06/02 01:17:45;;;;;;;2.83;1.60;;;17.90;64.10;;;;;;5021459;28;20481;-72
2022/06/02 01:20:35;;;;;;;2.40;1.52;;;17.90;64.40;;;;;;5031398;28;20133;-72
2022/06/02 01:23:37;;;;;;;2.80;1.40;;;17.80;64.60;;;;;;5000223;28;20385;-72
2022/06/02 01:26:39;;;;;;;1.60;1.50;;;17.80;64.70;;;;;;5031296;28;20045;-72
2022/06/02 01:29:19;;;;;;;1.92;1.52;;;17.70;64.80;;;;;;5003072;28;20388;-72
2022/06/02 01:32:06;;;;;;;9.27;2.08;;;17.70;65.00;;;;;;5027724;28;20090;-72
2022/06/02 01:34:58;;;;;;;3.22;1.50;;;17.70;65.70;;;;;;5012341;28;20032;-72
2022/06/02 01:37:46;;;;;;;3.53;1.48;;;17.60;64.60;;;;;;5031002;28;20111;-72
2022/06/02 01:40:40;;;;;;;2.97;1.50;;;17.60;64.30;;;;;;5031041;28;20164;-72
2022/06/02 01:43:06;;;;;;;3.47;1.38;;;17.60;64.10;;;;;;4999935;28;20021;-72
2022/06/02 01:46:15;;;;;;;2.35;1.70;;;17.50;64.00;;;;;;5064954;28;20031;-72
2022/06/02 01:49:18;;;;;;;4.03;1.23;;;17.50;64.40;;;;;;5092523;28;20020;-72
2022/06/02 01:52:12;;;;;;;3.15;1.58;;;17.40;64.10;;;;;;5103414;28;20024;-72
2022/06/02 01:54:52;;;;;;;1.60;1.27;;;17.40;63.90;;;;;;5096660;28;20035;-72
2022/06/02 01:57:56;;;;;;;0.95;0.93;;;17.30;63.80;;;;;;5108803;28;20035;-72
2022/06/02 02:00:26;;;;;;;1.52;1.05;;;17.30;63.80;;;;;;5095699;28;20150;-72
2022/06/02 02:03:31;;;;;;;1.67;1.48;;;17.20;63.60;;;;;;5093545;28;20066;-72
2022/06/02 02:06:26;;;;;;;4.75;1.60;;;17.20;63.90;;;;;;5093863;28;20035;-72
2022/06/02 02:08:58;;;;;;;4.93;1.42;;;17.20;64.10;;;;;;5092064;28;20056;-72
2022/06/02 02:11:35;;;;;;;1.92;1.10;;;17.10;64.10;;;;;;5092263;28;20078;-72
2022/06/02 02:14:46;;;;;;;2.08;1.38;;;17.10;64.10;;;;;;5093661;28;20039;-72
2022/06/02 02:17:20;;;;;;;1.52;1.42;;;17.10;64.40;;;;;;5030838;28;20080;-72
2022/06/02 02:20:22;;;;;;;1.42;1.33;;;17.10;64.50;;;;;;5031274;28;20033;-72
2022/06/02 02:23:21;;;;;;;3.58;1.40;;;17.10;64.80;;;;;;5031160;28;20095;-72
2022/06/02 02:26:01;;;;;;;1.17;1.08;;;17.10;64.80;;;;;;4955724;28;20526;-72
2022/06/02 02:29:11;;;;;;;2.55;1.48;;;17.10;65.40;;;;;;4972187;28;20049;-72
2022/06/02 02:31:58;;;;;;;2.50;1.80;;;17.10;64.90;;;;;;4952402;28;20442;-72
2022/06/02 02:34:25;;;;;;;2.85;1.63;;;17.10;64.80;;;;;;4972118;28;20539;-72
2022/06/02 02:37:19;;;;;;;1.83;1.42;;;17.20;64.90;;;;;;4971740;28;20046;-72
2022/06/02 02:40:07;;;;;;;1.90;1.30;;;17.20;65.00;;;;;;4955808;28;20546;-72
2022/06/02 02:42:51;;;;;;;6.93;1.50;;;17.20;64.80;;;;;;4971950;28;20058;-72
2022/06/02 02:45:32;;;;;;;1.77;1.67;;;17.20;64.80;;;;;;4955857;28;20052;-72
2022/06/02 02:48:15;;;;;;;5.00;1.60;;;17.20;64.80;;;;;;4955617;28;20110;-71
2022/06/02 02:50:55;;;;;;;2.17;1.45;;;17.20;65.20;;;;;;4972116;28;20459;-72
2022/06/02 02:53:43;;;;;;;1.77;1.42;;;17.20;65.30;;;;;;4985285;28;20038;-72
2022/06/02 02:56:28;;;;;;;6.10;1.63;;;17.20;65.20;;;;;;5030572;28;20045;-72
2022/06/02 02:59:03;;;;;;;2.58;1.50;;;17.20;65.10;;;;;;5030622;28;20168;-72
2022/06/02 03:01:51;;;;;;;9.82;1.80;;;17.20;65.20;;;;;;5017774;28;20037;-72
2022/06/02 03:05:02;;;;;;;3.15;1.58;;;17.20;65.30;;;;;;5072896;28;20020;-72
2022/06/02 03:07:30;;;;;;;8.18;2.40;;;17.10;65.30;;;;;;5009767;28;20045;-72
2022/06/02 03:10:24;;;;;;;2.58;2.25;;;17.10;65.60;;;;;;5072867;28;20124;-72
2022/06/02 03:13:15;;;;;;;2.63;2.42;;;17.00;65.50;;;;;;5072875;28;20028;-72
2022/06/02 03:15:53;;;;;;;3.88;2.13;;;17.00;65.80;;;;;;5071443;28;20051;-72
2022/06/02 03:18:30;;;;;;;3.30;1.80;;;16.90;66.10;;;;;;5071383;28;20044;-72
2022/06/02 03:21:09;;;;;;;12.50;2.30;;;16.90;66.50;;;;;;5072737;28;20032;-72
2022/06/02 03:24:09;;;;;;;6.07;1.90;;;16.80;66.70;;;;;;5074939;28;20024;-72
2022/06/02 03:27:08;;;;;;;3.05;2.17;;;16.80;66.90;;;;;;5075280;28;20491;-72
2022/06/02 03:30:10;;;;;;;1.70;1.60;;;16.80;67.00;;;;;;5076505;28;20036;-72
2022/06/02 03:32:41;;;;;;;3.92;1.77;;;16.80;66.90;;;;;;5075148;28;20026;-72
2022/06/02 03:35:22;;;;;;;2.58;1.88;;;16.80;67.10;;;;;;5074852;28;20457;-72
2022/06/02 03:38:23;;;;;;;2.03;1.80;;;16.80;67.20;;;;;;5075992;28;20036;-72
2022/06/02 03:41:30;;;;;;;2.85;1.63;;;16.80;67.00;;;;;;5091215;28;20035;-71
2022/06/02 03:44:25;;;;;;;5.90;1.92;;;16.90;66.90;;;;;;5094193;28;20031;-72
2022/06/02 03:47:12;;;;;;;3.65;1.50;;;16.90;66.80;;;;;;5095072;28;20464;-72
2022/06/02 03:49:54;;;;;;;6.35;1.70;;;16.90;66.90;;;;;;5096174;28;20032;-72
2022/06/02 03:52:38;;;;;;;7.22;2.20;;;16.90;67.10;;;;;;5096068;28;20031;-71
2022/06/02 03:55:31;;;;;;;5.78;1.98;;;17.00;67.30;;;;;;5096018;28;20107;-72
2022/06/02 03:58:29;;;;;;;2.20;2.00;;;17.00;67.20;;;;;;5095830;28;20518;-72
2022/06/02 04:01:08;;;;;;;4.53;2.17;;;17.10;67.00;;;;;;5075914;28;20040;-72
2022/06/02 04:04:01;;;;;;;5.28;1.98;;;17.20;66.90;;;;;;5074604;28;20025;-72
2022/06/02 04:06:55;;;;;;;1.80;1.70;;;17.20;66.80;;;;;;5075364;28;20039;-72
2022/06/02 04:09:57;;;;;;;2.65;1.92;;;17.30;66.70;;;;;;5073266;28;20131;-72
2022/06/02 04:15:56;;;;;;;1.90;1.80;;;17.40;66.30;;;;;;5075730;28;20031;-71
2022/06/02 04:18:44;;;;;;;3.72;1.95;;;17.50;66.00;;;;;;5075450;28;20103;-72
2022/06/02 04:21:25;;;;;;;4.70;2.00;;;17.50;65.70;;;;;;5074339;28;20059;-72
2022/06/02 04:24:15;;;;;;;2.35;1.63;;;17.50;65.60;;;;;;5075267;28;20491;-72
2022/06/02 04:27:32;;;;;;;1.70;1.60;;;17.60;65.50;;;;;;5075452;28;20368;-72
2022/06/02 04:30:36;;;;;;;2.67;1.58;;;17.60;65.30;;;;;;5032767;28;20495;-72
2022/06/02 04:33:34;;;;;;;3.17;1.77;;;17.70;65.20;;;;;;5032878;28;20036;-72
2022/06/02 04:36:08;;;;;;;2.08;1.60;;;17.80;65.20;;;;;;5031515;28;20123;-72
2022/06/02 04:38:49;;;;;;;1.92;1.80;;;17.80;65.20;;;;;;5016067;28;20029;-72
2022/06/02 04:41:53;;;;;;;3.80;1.85;;;17.90;66.00;;;;;;5016144;28;20385;-72
2022/06/02 04:44:45;;;;;;;2.67;1.60;;;18.00;65.10;;;;;;5032576;28;20029;-73
2022/06/02 04:47:42;;;;;;;3.38;1.58;;;18.00;64.70;;;;;;5032640;28;20172;-72
2022/06/02 04:50:37;;;;;;;2.08;1.50;;;18.10;64.50;;;;;;5032619;28;20037;-72
2022/06/02 04:53:47;;;;;;;3.35;1.63;;;18.20;64.40;;;;;;5032616;28;20037;-72
2022/06/02 04:56:28;;;;;;;5.15;1.83;;;18.30;64.30;;;;;;4963287;28;20035;-72
2022/06/02 04:58:57;;;;;;;3.22;1.50;;;18.30;64.10;;;;;;5031935;28;20097;-72
2022/06/02 05:01:47;;;;;;;1.60;1.42;;;18.40;64.00;;;;;;5058495;28;20032;-72
2022/06/02 05:04:45;;;;;;;2.65;1.52;;;18.50;63.90;;;;;;5074434;28;20025;-72
2022/06/02 05:07:32;;;;;;;4.70;1.55;;;18.50;63.60;;;;;;5074814;28;20039;-72
2022/06/02 05:10:43;;;;;;;4.32;1.48;;;18.60;63.30;;;;;;5074331;28;20496;-72
2022/06/02 05:13:33;;;;;;;1.58;1.38;;;18.70;63.20;;;;;;5071957;28;20036;-72
2022/06/02 05:16:24;;;;;;;1.50;1.40;;;18.80;63.10;;;;;;5074425;28;20032;-72
2022/06/02 05:19:23;;;;;;;4.85;2.00;;;18.80;62.40;;;;;;5074362;28;20157;-72
2022/06/02 05:22:04;;;;;;;1.80;1.52;;;18.90;62.20;;;;;;5074408;28;20020;-72
2022/06/02 05:24:49;;;;;;;2.80;1.40;;;18.90;62.00;;;;;;5074567;28;20032;-72
2022/06/02 05:28:05;;;;;;;2.53;1.40;;;19.00;61.80;;;;;;5074436;28;20021;-72
2022/06/02 05:30:58;;;;;;;1.88;1.27;;;19.00;61.70;;;;;;5031680;28;20057;-72
2022/06/02 05:34:03;;;;;;;1.75;1.65;;;19.10;61.90;;;;;;5015251;28;20041;-72
2022/06/02 05:36:53;;;;;;;8.90;1.60;;;19.20;61.50;;;;;;4972745;28;20105;-72
2022/06/02 05:39:57;;;;;;;1.77;1.50;;;19.30;61.30;;;;;;4973058;28;20067;-72
2022/06/02 05:42:30;;;;;;;2.22;1.60;;;19.40;61.10;;;;;;5010866;28;20512;-72
2022/06/02 05:45:43;;;;;;;3.42;1.83;;;19.40;60.90;;;;;;5031591;28;20377;-72
2022/06/02 05:48:29;;;;;;;3.70;2.30;;;19.50;61.00;;;;;;5031531;28;20025;-72
2022/06/02 05:51:14;;;;;;;2.67;1.85;;;19.50;60.70;;;;;;5015104;28;20025;-72
2022/06/02 05:53:57;;;;;;;2.88;2.10;;;19.50;60.60;;;;;;5025827;28;20548;-73
2022/06/02 05:56:41;;;;;;;3.90;2.00;;;19.50;60.50;;;;;;4997014;28;20034;-73
2022/06/02 05:59:36;;;;;;;3.90;1.90;;;19.50;60.40;;;;;;4994763;28;20414;-72
2022/06/02 06:02:14;;;;;;;3.17;1.75;;;19.50;60.10;;;;;;5011308;28;20030;-72
2022/06/02 06:05:07;;;;;;;3.42;2.03;;;19.50;60.30;;;;;;4994533;28;20022;-72
2022/06/02 06:07:55;;;;;;;3.60;2.05;;;19.50;60.30;;;;;;5073338;28;20031;-72
2022/06/02 06:10:47;;;;;;;2.95;1.63;;;19.60;60.30;;;;;;5073868;28;20108;-72
2022/06/02 06:13:44;;;;;;;1.58;1.42;;;19.60;60.30;;;;;;5073547;28;20154;-72
2022/06/02 06:16:39;;;;;;;2.45;1.70;;;19.70;60.10;;;;;;5072091;28;20031;-72
2022/06/02 06:19:37;;;;;;;2.92;1.55;;;19.70;60.30;;;;;;5082319;28;20484;-72
2022/06/02 06:22:30;;;;;;;8.40;2.15;;;19.80;60.00;;;;;;5092365;28;20111;-72
2022/06/02 06:25:09;;;;;;;1.90;1.63;;;19.80;59.70;;;;;;5093304;28;20482;-72
2022/06/02 06:27:46;;;;;;;2.08;1.63;;;19.90;59.70;;;;;;5092284;28;20475;-72
2022/06/02 06:30:53;;;;;;;2.22;1.60;;;20.00;59.60;;;;;;5092245;28;20438;-72
2022/06/02 06:34:16;;;;;;;1.83;1.60;;;20.10;59.50;;;;;;5092310;28;20031;-72
2022/06/02 06:37:17;;;;;;;4.63;1.75;;;20.20;59.80;;;;;;5076055;28;20050;-72
2022/06/02 06:39:54;;;;;;;4.95;2.00;;;20.30;59.70;;;;;;5011321;28;20041;-73
2022/06/02 06:42:30;;;;;;;3.15;2.00;;;20.50;59.30;;;;;;5065120;28;20091;-72
2022/06/02 06:44:56;;;;;;;2.75;2.13;;;20.60;58.80;;;;;;5071641;28;20020;-72
2022/06/02 06:47:42;;;;;;;2.00;1.70;;;20.70;58.30;;;;;;5072549;28;20090;-72
2022/06/02 06:50:17;;;;;;;2.75;2.10;;;20.80;58.30;;;;;;5073298;28;20382;-72
2022/06/02 06:53:04;;;;;;;2.63;1.75;;;20.90;57.90;;;;;;5071832;28;20029;-72
2022/06/02 06:55:36;;;;;;;3.95;2.15;;;21.10;57.90;;;;;;5081760;28;20468;-72
2022/06/02 06:58:37;;;;;;;2.22;1.70;;;21.10;57.40;;;;;;5081345;28;20036;-72
2022/06/02 07:01:25;;;;;;;2.95;2.28;;;21.20;57.20;;;;;;5043360;28;20044;-72
2022/06/02 07:04:29;;;;;;;4.20;2.30;;;21.30;56.70;;;;;;5077032;28;20558;-72
2022/06/02 07:07:05;;;;;;;5.35;1.90;;;21.40;56.90;;;;;;5077074;28;20475;-72
2022/06/02 07:09:50;;;;;;;2.17;1.98;;;21.40;56.60;;;;;;5075229;28;20119;-72
2022/06/02 07:15:16;;;;;;;5.43;1.98;;;21.50;56.10;;;;;;5096973;28;20081;-72
2022/06/02 07:17:56;;;;;;;3.50;2.13;;;21.60;56.00;;;;;;5097074;28;20028;-72
2022/06/02 07:21:12;;;;;;;2.75;1.90;;;21.60;55.20;;;;;;5095552;28;20031;-72
2022/06/02 07:24:25;;;;;;;2.80;1.70;;;21.60;55.50;;;;;;5062151;28;20036;-72
2022/06/02 07:27:38;;;;;;;2.72;1.95;;;21.70;55.50;;;;;;5014271;28;20489;-72
2022/06/02 07:30:25;;;;;;;2.72;2.00;;;21.70;54.90;;;;;;5014496;28;20033;-72
2022/06/02 07:33:21;;;;;;;3.67;2.10;;;21.80;54.70;;;;;;5014237;28;20048;-72
2022/06/02 07:36:11;;;;;;;3.60;2.20;;;21.90;55.00;;;;;;5014036;28;20041;-72
2022/06/02 07:39:02;;;;;;;3.05;2.13;;;21.90;54.20;;;;;;5013953;28;20041;-72
2022/06/02 07:41:41;;;;;;;3.03;1.73;;;21.90;53.90;;;;;;4997583;28;20605;-72
2022/06/02 07:44:32;;;;;;;2.67;1.80;;;22.00;53.80;;;;;;5014071;28;20478;-72
2022/06/02 07:47:38;;;;;;;3.15;1.80;;;22.00;53.80;;;;;;4997593;28;20034;-73
2022/06/02 07:50:41;;;;;;;3.00;1.90;;;22.20;54.10;;;;;;5013924;28;20072;-72
2022/06/02 07:53:13;;;;;;;2.40;1.88;;;22.30;53.90;;;;;;5013776;28;20109;-72
2022/06/02 07:56:07;;;;;;;6.63;2.20;;;22.30;53.10;;;;;;5010962;28;20030;-72
2022/06/02 07:58:56;;;;;;;5.88;2.30;;;22.40;52.80;;;;;;5090585;28;20048;-72
2022/06/02 08:01:22;;;;;;;5.82;2.08;;;22.50;52.40;;;;;;5082934;28;20032;-72
2022/06/02 08:04:06;;;;;;;3.45;2.03;;;22.50;51.90;;;;;;5095274;28;20024;-72
2022/06/02 08:06:54;;;;;;;3.17;1.88;;;22.60;52.10;;;;;;5094339;28;20032;-72
2022/06/02 08:09:44;;;;;;;3.75;1.90;;;22.70;52.40;;;;;;5092804;28;20475;-72
2022/06/02 08:12:42;;;;;;;3.15;1.67;;;22.80;52.30;;;;;;5085635;28;20472;-72
2022/06/02 08:15:26;;;;;;;3.53;2.17;;;22.80;52.10;;;;;;5093658;28;20042;-70
2022/06/02 08:18:04;;;;;;;3.50;2.30;;;22.90;51.40;;;;;;5081416;28;20036;-71
2022/06/02 08:20:59;;;;;;;2.35;1.90;;;23.00;51.00;;;;;;5094416;28;20506;-71
2022/06/02 08:23:24;;;;;;;;;;;23.00;51.50;;;;;;5092576;28;20031;-71
2022/06/02 08:26:05;;;;;;;4.43;2.13;;;23.10;52.50;;;;;;5093984;28;19961;-71
2022/06/02 08:28:51;;;;;;;3.72;2.30;;;23.10;51.10;;;;;;5094524;28;20031;-70
2022/06/02 08:31:45;;;;;;;8.68;2.50;;;23.10;50.30;;;;;;5091037;28;20387;-71
2022/06/02 08:34:21;;;;;;;5.28;2.50;;;23.20;50.10;;;;;;5092056;28;20032;-71
2022/06/02 08:36:50;;;;;;;2.20;2.00;;;23.10;49.50;;;;;;5092381;28;20123;-71
2022/06/02 08:39:43;;;;;;;3.38;2.22;;;23.20;50.00;;;;;;5073854;28;20032;-70
2022/06/02 08:42:39;;;;;;;2.85;2.35;;;23.20;50.20;;;;;;5074996;28;20028;-71
2022/06/02 08:45:05;;;;;;;3.90;2.13;;;23.30;49.90;;;;;;5074052;28;20547;-71
2022/06/02 08:47:58;;;;;;;5.25;2.85;;;23.20;49.70;;;;;;5089008;28;20148;-71
2022/06/02 08:51:07;;;;;;;3.60;2.40;;;23.30;49.50;;;;;;5090008;28;20024;-70
2022/06/02 08:54:09;;;;;;;2.97;2.15;;;23.30;48.90;;;;;;5094237;28;20115;-71
2022/06/02 08:56:59;;;;;;;8.02;2.92;;;23.40;49.10;;;;;;5094608;28;20098;-70
2022/06/02 08:59:42;;;;;;;2.47;2.03;;;23.40;48.90;;;;;;5092436;28;20024;-70
2022/06/02 09:02:42;;;;;;;5.35;2.45;;;23.40;48.70;;;;;;5093499;28;20387;-71
2022/06/02 09:05:37;;;;;;;5.05;2.70;;;23.50;48.90;;;;;;5082816;28;20028;-71
2022/06/02 09:09:00;;;;;;;4.00;2.08;;;23.50;48.60;;;;;;5094679;28;20048;-71
2022/06/02 09:11:54;;;;;;;4.63;2.13;;;23.60;48.90;;;;;;5093061;28;20043;-71
2022/06/02 09:14:38;;;;;;;6.95;2.42;;;23.70;48.90;;;;;;5094186;28;20028;-71
2022/06/02 09:17:29;;;;;;;2.42;2.10;;;23.80;48.30;;;;;;5100041;28;20035;-72
2022/06/02 09:20:40;;;;;;;3.58;2.50;;;23.80;48.10;;;;;;5068997;28;20391;-72
2022/06/02 09:23:15;;;;;;;2.28;1.77;;;23.90;47.80;;;;;;5090230;28;20438;-72
2022/06/02 09:26:05;;;;;;;2.25;2.03;;;24.00;47.60;;;;;;5089396;28;20020;-72
2022/06/02 09:28:49;;;;;;;4.50;3.40;;;24.00;47.60;;;;;;5088348;28;20025;-72
2022/06/02 09:31:32;;;;;;;4.35;2.38;;;24.10;47.90;;;;;;5087339;28;20051;-72
2022/06/02 09:34:36;;;;;;;3.88;1.85;;;24.10;47.20;;;;;;5084641;28;20073;-69
2022/06/02 09:37:14;;;;;;;3.42;2.33;;;24.20;46.90;;;;;;5087562;28;20035;-71
2022/06/02 09:40:15;;;;;;;2.63;1.80;;;24.20;45.80;;;;;;5091530;28;20028;-70
2022/06/02 09:42:52;;;;;;;3.05;1.90;;;24.20;45.50;;;;;;5088366;28;20082;-70
2022/06/02 09:45:38;;;;;;;2.92;2.03;;;24.20;45.20;;;;;;5083299;28;20034;-70
2022/06/02 09:48:39;;;;;;;2.30;2.00;;;24.30;45.00;;;;;;5093905;28;20127;-71
2022/06/02 09:51:16;;;;;;;3.72;2.13;;;24.40;44.50;;;;;;5092901;28;20020;-72
2022/06/02 09:54:05;;;;;;;2.80;1.80;;;24.40;43.90;;;;;;5092176;28;20484;-71
2022/06/02 09:56:49;;;;;;;4.03;2.13;;;24.40;44.20;;;;;;5088465;28;20028;-71
2022/06/02 09:59:33;;;;;;;3.07;2.40;;;24.50;44.50;;;;;;5091433;28;20028;-71
2022/06/02 10:02:23;;;;;;;4.70;2.42;;;24.50;44.80;;;;;;5090855;28;20082;-71
2022/06/02 10:05:28;;;;;;;5.35;2.30;;;24.60;45.30;;;;;;5096394;28;20115;-71
2022/06/02 10:08:06;;;;;;;;;;;24.70;45.40;;;;;;5092825;28;20081;-71
2022/06/02 10:10:55;;;;;;;4.00;2.30;;;24.80;46.10;;;;;;5097683;28;19915;-71
2022/06/02 10:13:48;;;;;;;3.47;2.45;;;24.80;44.40;;;;;;5088419;28;20406;-72
2022/06/02 10:16:52;;;;;;;4.40;2.72;;;24.90;43.80;;;;;;5091611;28;20392;-71
2022/06/02 10:19:51;;;;;;;2.57;2.13;;;25.00;43.50;;;;;;5092188;28;20043;-71
2022/06/02 10:22:54;;;;;;;3.25;2.42;;;25.10;42.70;;;;;;5093526;28;20775;-71
2022/06/02 10:25:47;;;;;;;3.25;2.03;;;25.20;43.20;;;;;;5002848;28;20041;-71
2022/06/02 10:29:00;;;;;;;7.68;3.65;;;25.30;42.90;;;;;;5079940;28;20059;-71
2022/06/02 10:31:57;;;;;;;4.82;3.17;;;25.40;44.20;;;;;;5045724;28;20043;-71
2022/06/02 10:34:41;;;;;;;5.70;2.63;;;25.50;44.20;;;;;;5083792;28;20024;-71
2022/06/02 10:37:34;;;;;;;5.68;2.28;;;25.60;44.00;;;;;;5090388;28;20096;-71
2022/06/02 10:40:12;;;;;;;3.33;2.30;;;25.70;43.70;;;;;;5091876;28;20036;-72
2022/06/02 10:43:22;;;;;;;3.92;2.28;;;25.80;43.00;;;;;;5092215;28;20085;-72
2022/06/02 10:46:20;;;;;;;4.38;2.83;;;25.90;43.40;;;;;;5092473;28;20032;-72
2022/06/02 10:49:15;;;;;;;3.40;1.80;;;26.00;42.50;;;;;;5092171;28;20491;-71
2022/06/02 10:52:27;;;;;;;8.30;2.15;;;26.10;42.20;;;;;;5090096;28;20036;-72
2022/06/02 10:55:04;;;;;;;5.50;2.63;;;26.20;42.50;;;;;;5092108;28;20456;-72
2022/06/02 10:58:14;;;;;;;1.60;1.50;;;26.30;42.30;;;;;;5093356;28;20035;-72
2022/06/02 11:00:43;;;;;;;5.72;1.88;;;26.40;42.70;;;;;;5093309;28;20063;-72
2022/06/02 11:03:31;;;;;;;2.28;1.90;;;26.50;42.00;;;;;;5092946;28;20020;-72
2022/06/02 11:06:34;;;;;;;2.80;1.85;;;26.60;41.80;;;;;;5093125;28;20024;-72
2022/06/02 11:09:11;;;;;;;2.22;1.80;;;26.80;42.10;;;;;;5092823;28;20056;-72
2022/06/02 11:12:01;;;;;;;2.67;2.17;;;27.00;41.10;;;;;;5093267;28;20492;-72
2022/06/02 11:14:46;;;;;;;5.47;1.75;;;27.10;41.20;;;;;;5091931;28;20494;-72
2022/06/02 11:17:42;;;;;;;6.18;1.77;;;27.30;41.50;;;;;;5093086;28;20035;-72
2022/06/02 11:20:35;;;;;;;2.28;1.67;;;27.40;40.10;;;;;;5093275;28;20385;-72
2022/06/02 11:23:22;;;;;;;3.30;1.77;;;27.60;39.70;;;;;;5093217;28;20056;-72
2022/06/02 11:26:09;;;;;;;3.05;1.70;;;27.90;39.50;;;;;;5092747;28;20383;-71
2022/06/02 11:28:47;;;;;;;3.75;1.60;;;28.10;38.30;;;;;;5084950;28;20456;-72
2022/06/02 11:31:46;;;;;;;2.72;1.50;;;28.30;38.20;;;;;;5072722;28;20049;-72
2022/06/02 11:34:56;;;;;;;4.32;1.70;;;28.40;37.60;;;;;;5072860;28;20064;-72
2022/06/02 11:38:10;;;;;;;3.67;1.92;;;28.60;37.30;;;;;;5072707;28;20031;-72
2022/06/02 11:41:01;;;;;;;4.82;1.55;;;28.80;37.80;;;;;;5071589;28;20032;-72
2022/06/02 11:43:40;;;;;;;4.18;2.10;;;28.90;37.10;;;;;;5071552;28;20119;-72
2022/06/02 11:46:18;;;;;;;7.22;1.65;;;28.90;35.70;;;;;;5075217;28;20107;-72
2022/06/02 11:49:00;;;;;;;2.05;1.67;;;28.90;35.30;;;;;;5076029;28;20029;-72
2022/06/02 11:51:49;;;;;;;2.75;1.70;;;28.90;35.80;;;;;;5091967;28;20166;-72
2022/06/02 11:54:44;;;;;;;3.42;1.55;;;29.00;35.70;;;;;;5095516;28;20032;-72
2022/06/02 11:57:43;;;;;;;2.92;1.85;;;29.10;35.90;;;;;;5086204;28;20039;-72
2022/06/02 12:00:24;;;;;;;4.00;1.80;;;29.20;36.00;;;;;;5093183;28;20039;-73
2022/06/02 12:03:27;;;;;;;2.60;1.63;;;29.30;35.20;;;;;;5087623;28;20762;-73
2022/06/02 12:06:08;;;;;;;2.28;1.33;;;29.40;35.00;;;;;;5086092;28;20055;-73
2022/06/02 12:09:08;;;;;;;3.17;1.65;;;29.60;35.00;;;;;;5090985;28;20059;-72
2022/06/02 12:11:46;;;;;;;5.05;2.22;;;29.70;34.90;;;;;;5090696;28;20506;-72
2022/06/02 12:14:37;;;;;;;2.45;1.50;;;29.80;33.50;;;;;;5092117;28;20434;-72
2022/06/02 12:17:28;;;;;;;4.93;1.48;;;29.90;33.30;;;;;;5079493;28;20450;-72
2022/06/02 12:19:59;;;;;;;2.42;1.45;;;29.90;33.40;;;;;;5095787;28;20039;-72
2022/06/02 12:22:52;;;;;;;4.63;1.50;;;30.00;32.70;;;;;;5093189;28;20371;-73
2022/06/02 12:25:39;;;;;;;2.80;1.35;;;30.00;33.10;;;;;;5085392;28;20558;-72
2022/06/02 12:28:14;;;;;;;1.55;1.20;;;30.00;32.60;;;;;;5097759;28;20093;-72
2022/06/02 12:30:51;;;;;;;3.45;1.50;;;30.10;31.70;;;;;;5075565;28;20029;-72
2022/06/02 12:33:35;;;;;;;2.83;1.63;;;30.20;30.70;;;;;;5075327;28;20035;-72
2022/06/02 12:36:22;;;;;;;2.55;1.67;;;30.20;31.40;;;;;;5092543;28;20073;-72
2022/06/02 12:38:57;;;;;;;1.60;0.98;;;30.20;29.90;;;;;;5090623;28;20036;-72
2022/06/02 12:42:00;;;;;;;2.58;1.50;;;30.10;30.20;;;;;;5095715;28;20055;-72
2022/06/02 12:44:43;;;;;;;1.63;1.08;;;30.00;30.40;;;;;;5094248;28;20028;-72
2022/06/02 12:47:28;;;;;;;1.50;1.05;;;29.80;30.40;;;;;;5095158;28;20028;-72
2022/06/02 12:50:18;;;;;;;2.03;1.15;;;29.70;29.40;;;;;;5084183;28;20422;-72
2022/06/02 12:53:05;;;;;;;1.63;1.20;;;29.50;30.00;;;;;;5094143;28;20440;-73
2022/06/02 12:55:44;;;;;;;2.00;1.42;;;29.40;29.50;;;;;;5092397;28;20388;-73
2022/06/02 12:58:50;;;;;;;1.30;1.13;;;29.20;30.10;;;;;;5094857;28;20503;-72
2022/06/02 13:01:45;;;;;;;4.38;1.45;;;29.10;31.10;;;;;;5080324;28;20127;-73
2022/06/02 13:04:34;;;;;;;2.42;1.35;;;29.10;30.70;;;;;;5084981;28;20055;-72
2022/06/02 13:07:18;;;;;;;3.05;1.52;;;29.10;31.20;;;;;;5080051;28;20085;-73
2022/06/02 13:09:53;;;;;;;1.55;1.23;;;29.10;30.70;;;;;;5088950;28;20496;-72
2022/06/02 13:12:35;;;;;;;3.47;1.20;;;29.00;30.20;;;;;;5081968;28;20056;-72
2022/06/02 13:15:26;;;;;;;1.13;1.02;;;28.90;30.20;;;;;;5094724;28;20501;-73
2022/06/02 13:18:29;;;;;;;1.23;0.95;;;28.90;30.00;;;;;;5094723;28;20028;-73
2022/06/02 13:21:24;;;;;;;2.17;1.40;;;28.80;30.00;;;;;;5073336;28;20040;-71
2022/06/02 13:24:13;;;;;;;2.17;1.15;;;28.90;30.80;;;;;;5076086;28;20035;-72
2022/06/02 13:27:04;;;;;;;4.63;1.20;;;29.10;30.00;;;;;;5075511;28;20392;-72
2022/06/02 13:29:33;;;;;;;4.10;1.70;;;29.40;30.60;;;;;;5092806;28;20111;-72
2022/06/02 13:32:18;;;;;;;1.33;1.23;;;29.80;28.70;;;;;;5091638;28;20107;-72
2022/06/02 13:34:59;;;;;;;1.92;1.30;;;30.30;28.80;;;;;;5091620;28;20031;-71
2022/06/02 13:37:28;;;;;;;2.25;1.17;;;30.80;28.30;;;;;;5091494;28;20082;-72
2022/06/02 13:40:25;;;;;;;2.70;1.50;;;31.40;28.00;;;;;;5093306;28;20028;-72
2022/06/02 13:43:07;;;;;;;2.65;2.10;;;31.90;28.50;;;;;;5089753;28;20116;-72
2022/06/02 13:45:45;;;;;;;2.70;1.40;;;32.60;27.10;;;;;;5073057;28;20131;-72
2022/06/02 13:48:48;;;;;;;3.08;1.20;;;33.10;26.90;;;;;;5073833;28;20038;-72
2022/06/02 13:51:55;;;;;;;2.47;1.20;;;33.90;27.10;;;;;;5074158;28;20078;-72
2022/06/02 13:57:55;;;;;;;3.97;1.38;;;35.50;25.80;;;;;;5092082;28;20498;-72
2022/06/02 14:00:55;;;;;;;1.67;1.20;;;36.40;25.70;;;;;;5073431;28;20028;-72
2022/06/02 14:03:49;;;;;;;2.90;1.48;;;37.20;24.10;;;;;;5072342;28;20064;-73
2022/06/02 14:06:26;;;;;;;2.47;1.20;;;37.80;23.20;;;;;;5090896;28;20028;-72
2022/06/02 14:09:20;;;;;;;4.50;1.77;;;38.40;21.10;;;;;;5092011;28;20101;-72
2022/06/02 14:11:51;;;;;;;2.28;1.48;;;39.00;20.20;;;;;;5091095;28;20529;-73
2022/06/02 14:14:34;;;;;;;2.55;1.48;;;39.60;19.10;;;;;;5089623;28;20028;-73
2022/06/02 14:17:25;;;;;;;2.95;1.23;;;40.00;18.20;;;;;;5093342;28;20387;-73
2022/06/02 14:20:18;;;;;;;2.60;1.38;;;40.70;19.80;;;;;;5089208;28;20028;-73
2022/06/02 14:22:55;;;;;;;1.83;1.30;;;41.10;18.60;;;;;;5093862;28;20019;-72
2022/06/02 14:25:33;;;;;;;1.67;1.30;;;41.60;18.20;;;;;;5088112;28;20052;-73
2022/06/02 14:28:37;;;;;;;2.55;1.40;;;42.10;17.80;;;;;;5093448;28;20102;-72
2022/06/02 14:31:25;;;;;;;1.35;1.25;;;42.60;18.00;;;;;;5093448;28;20045;-73
2022/06/02 14:34:17;;;;;;;4.55;1.05;;;43.10;16.20;;;;;;5093451;28;20020;-72
2022/06/02 14:37:00;;;;;;;3.88;1.23;;;43.40;15.50;;;;;;5080980;28;20075;-73
2022/06/02 14:39:47;;;;;;;1.48;1.27;;;43.80;15.40;;;;;;5093587;28;20034;-72
2022/06/02 14:45:57;;;;;;;3.50;1.30;;;44.70;15.70;;;;;;5092994;28;20038;-73
2022/06/02 14:48:30;;;;;;;1.27;1.05;;;45.10;14.80;;;;;;5088244;28;20039;-73
2022/06/02 14:51:13;;;;;;;2.20;1.15;;;45.30;13.70;;;;;;5091834;28;20080;-73
2022/06/02 14:54:06;;;;;;;1.20;1.10;;;45.50;14.90;;;;;;5093349;28;20076;-73
2022/06/02 14:57:01;;;;;;;10.77;1.50;;;45.70;14.20;;;;;;5092919;28;20059;-73